createdAt,value
2023-01-29T00:00:13.981Z,102106.88
2023-01-29T00:02:40.745Z,102112.63
2023-01-29T00:05:26.105Z,102107.06
2023-01-29T00:07:53.770Z,102110.53
2023-01-29T00:10:20.563Z,102118.63
2023-01-29T00:12:47.835Z,102117.13
2023-01-29T00:15:14.310Z,102100.78
2023-01-29T00:17:40.967Z,102108.84
2023-01-29T00:20:07.405Z,102112.97
2023-01-29T00:22:33.804Z,102105.91
2023-01-29T00:25:00.284Z,102106.13
2023-01-29T00:27:27.108Z,102107.75
2023-01-29T00:29:53.464Z,102105.88
2023-01-29T00:32:19.972Z,102106.91
2023-01-29T00:34:47.391Z,102104.59
2023-01-29T00:37:13.765Z,102100.44
2023-01-29T00:39:47.866Z,102094.19
2023-01-29T00:42:14.585Z,102088.81
2023-01-29T00:44:41.208Z,102082.63
2023-01-29T00:47:07.771Z,102076.16
2023-01-29T00:49:34.457Z,102074.69
2023-01-29T00:52:01.205Z,102069.94
2023-01-29T00:54:27.919Z,102073.03
2023-01-29T00:56:54.654Z,102069.91
2023-01-29T00:59:21.068Z,102068.84
2023-01-29T01:01:47.452Z,102063.25
2023-01-29T01:04:14.312Z,102058.50
2023-01-29T01:06:41.042Z,102059.22
2023-01-29T01:09:07.635Z,102072.31
2023-01-29T01:11:34.354Z,102069.78
2023-01-29T01:14:01.126Z,102065.63
2023-01-29T01:16:27.695Z,102066.66
2023-01-29T01:18:54.209Z,102066.19
2023-01-29T01:21:20.625Z,102064.94
2023-01-29T01:23:47.017Z,102053.56
2023-01-29T01:26:13.482Z,102048.75
2023-01-29T01:28:39.948Z,102041.06
2023-01-29T01:31:06.600Z,102039.84
2023-01-29T01:33:33.050Z,102051.66
2023-01-29T01:35:59.708Z,102041.63
2023-01-29T01:38:26.483Z,102048.09
2023-01-29T01:40:53.688Z,102054.06
2023-01-29T01:43:20.203Z,102051.97
2023-01-29T01:45:46.721Z,102044.72
2023-01-29T01:48:13.206Z,102042.22
2023-01-29T01:50:39.844Z,102048.63
2023-01-29T01:53:06.322Z,102041.78
2023-01-29T01:55:33.082Z,102041.56
2023-01-29T01:57:59.576Z,102029.72
2023-01-29T02:00:26.150Z,102036.13
2023-01-29T02:02:53.034Z,102042.91
2023-01-29T02:05:19.725Z,102042.53
2023-01-29T02:07:46.781Z,102039.59
2023-01-29T02:10:13.815Z,102045.19
2023-01-29T02:12:40.561Z,102048.81
2023-01-29T02:15:07.140Z,102050.88
2023-01-29T02:17:34.328Z,102045.94
2023-01-29T02:20:00.787Z,102046.53
2023-01-29T02:22:28.092Z,102043.38
2023-01-29T02:24:55.184Z,102038.84
2023-01-29T02:27:21.619Z,102033.25
2023-01-29T02:29:48.335Z,102038.59
2023-01-29T02:32:15.054Z,102031.78
2023-01-29T02:34:41.435Z,102039.19
2023-01-29T02:37:07.895Z,102035.88
2023-01-29T02:39:34.505Z,102033.19
2023-01-29T02:42:01.412Z,102023.25
2023-01-29T02:44:27.897Z,102023.00
2023-01-29T02:46:54.478Z,102026.06
2023-01-29T02:49:20.960Z,102016.53
2023-01-29T02:51:47.349Z,102010.78
2023-01-29T02:54:14.182Z,102011.81
2023-01-29T02:56:40.679Z,102011.38
2023-01-29T02:59:07.048Z,102008.03
2023-01-29T03:01:33.522Z,102004.72
2023-01-29T03:03:59.985Z,102002.69
2023-01-29T03:06:26.513Z,101997.03
2023-01-29T03:08:53.233Z,101996.84
2023-01-29T03:11:19.645Z,102000.09
2023-01-29T03:13:46.123Z,101994.03
2023-01-29T03:16:12.929Z,101998.56
2023-01-29T03:18:39.483Z,101991.78
2023-01-29T03:21:05.893Z,101995.31
2023-01-29T03:23:32.657Z,101986.78
2023-01-29T03:25:59.185Z,101977.03
2023-01-29T03:28:25.572Z,101981.53
2023-01-29T03:30:52.022Z,101984.63
2023-01-29T03:33:18.547Z,101982.94
2023-01-29T03:35:45.425Z,101973.91
2023-01-29T03:38:11.916Z,101975.75
2023-01-29T03:40:38.483Z,101982.59
2023-01-29T03:43:04.880Z,101982.09
2023-01-29T03:45:31.978Z,101980.13
2023-01-29T03:47:58.607Z,101981.59
2023-01-29T03:50:25.182Z,101984.09
2023-01-29T03:52:51.741Z,101986.59
2023-01-29T03:55:19.238Z,101971.09
2023-01-29T03:57:45.927Z,101981.25
2023-01-29T04:00:12.456Z,101973.56
2023-01-29T04:02:38.960Z,101972.50
2023-01-29T04:05:07.169Z,101966.72
2023-01-29T04:07:33.957Z,101966.72
2023-01-29T04:10:00.955Z,101959.00
2023-01-29T04:12:28.787Z,101953.44
2023-01-29T04:14:55.498Z,101955.84
2023-01-29T04:17:22.120Z,101956.44
2023-01-29T04:19:49.086Z,101950.91
2023-01-29T04:22:15.615Z,101946.53
2023-01-29T04:24:42.326Z,101931.00
2023-01-29T04:27:08.695Z,101926.69
2023-01-29T04:29:35.614Z,101928.50
2023-01-29T04:32:02.301Z,101927.50
2023-01-29T04:34:28.826Z,101918.16
2023-01-29T04:36:55.411Z,101911.19
2023-01-29T04:39:21.907Z,101913.19
2023-01-29T04:41:48.532Z,101906.63
2023-01-29T04:44:14.911Z,101900.78
2023-01-29T04:46:41.250Z,101895.03
2023-01-29T04:49:07.931Z,101890.22
2023-01-29T04:51:34.438Z,101888.41
2023-01-29T04:54:00.846Z,101885.91
2023-01-29T04:56:27.466Z,101878.22
2023-01-29T04:58:53.897Z,101878.03
2023-01-29T05:01:20.362Z,101883.59
2023-01-29T05:03:47.124Z,101885.84
2023-01-29T05:06:13.589Z,101876.50
2023-01-29T05:08:40.236Z,101883.34
2023-01-29T05:11:06.677Z,101887.22
2023-01-29T05:13:33.508Z,101884.56
2023-01-29T05:16:00.015Z,101885.75
2023-01-29T05:18:26.857Z,101882.28
2023-01-29T05:20:53.656Z,101885.50
2023-01-29T05:23:20.233Z,101887.34
2023-01-29T05:25:46.815Z,101887.81
2023-01-29T05:28:13.549Z,101874.59
2023-01-29T05:30:40.102Z,101874.13
2023-01-29T05:33:06.754Z,101882.38
2023-01-29T05:35:33.209Z,101888.13
2023-01-29T05:37:59.797Z,101890.16
2023-01-29T05:40:26.434Z,101894.34
2023-01-29T05:42:53.008Z,101903.00
2023-01-29T05:45:19.551Z,101907.25
2023-01-29T05:47:46.036Z,101917.38
2023-01-29T05:50:12.684Z,101921.44
2023-01-29T05:52:39.334Z,101908.66
2023-01-29T05:55:05.844Z,101910.88
2023-01-29T05:57:32.334Z,101916.22
2023-01-29T05:59:58.863Z,101921.78
2023-01-29T06:02:25.538Z,101918.25
2023-01-29T06:04:52.538Z,101910.41
2023-01-29T06:07:19.403Z,101907.66
2023-01-29T06:09:46.037Z,101908.84
2023-01-29T06:12:12.968Z,101912.53
2023-01-29T06:14:39.628Z,101923.28
2023-01-29T06:17:06.128Z,101923.00
2023-01-29T06:19:33.140Z,101926.97
2023-01-29T06:21:59.561Z,101935.78
2023-01-29T06:24:26.162Z,101941.50
2023-01-29T06:26:53.059Z,101939.66
2023-01-29T06:29:19.644Z,101927.75
2023-01-29T06:31:46.315Z,101933.63
2023-01-29T06:34:12.992Z,101928.81
2023-01-29T06:36:39.368Z,101927.84
2023-01-29T06:39:06.142Z,101925.97
2023-01-29T06:41:32.792Z,101920.16
2023-01-29T06:43:59.291Z,101923.03
2023-01-29T06:46:25.709Z,101932.34
2023-01-29T06:48:52.783Z,101939.47
2023-01-29T06:51:19.622Z,101942.97
2023-01-29T06:53:46.910Z,101942.53
2023-01-29T06:56:13.795Z,101945.03
2023-01-29T06:58:40.325Z,101942.72
2023-01-29T07:01:06.878Z,101941.88
2023-01-29T07:03:33.525Z,101931.16
2023-01-29T07:06:00.075Z,101944.28
2023-01-29T07:08:26.877Z,101949.28
2023-01-29T07:10:53.453Z,101954.16
2023-01-29T07:13:19.854Z,101951.47
2023-01-29T07:15:46.444Z,101948.78
2023-01-29T07:18:13.156Z,101940.13
2023-01-29T07:20:39.564Z,101926.53
2023-01-29T07:23:06.195Z,101926.91
2023-01-29T07:25:32.794Z,101921.00
2023-01-29T07:28:00.873Z,101922.00
2023-01-29T07:30:27.581Z,101929.94
2023-01-29T07:32:54.171Z,101919.91
2023-01-29T07:35:20.837Z,101933.66
2023-01-29T07:37:47.292Z,101920.44
2023-01-29T07:40:13.878Z,101920.25
2023-01-29T07:42:40.862Z,101910.91
2023-01-29T07:45:07.478Z,101917.56
2023-01-29T07:47:34.148Z,101912.41
2023-01-29T07:50:00.670Z,101918.97
2023-01-29T07:52:27.311Z,101912.31
2023-01-29T07:54:53.740Z,101915.66
2023-01-29T07:57:20.426Z,101913.50
2023-01-29T07:59:47.367Z,101922.22
2023-01-29T08:02:13.948Z,101913.50
2023-01-29T08:04:40.533Z,101913.88
2023-01-29T08:07:06.941Z,101905.66
2023-01-29T08:09:33.716Z,101883.59
2023-01-29T08:12:00.245Z,101882.75
2023-01-29T08:14:26.917Z,101880.91
2023-01-29T08:16:53.242Z,101885.81
2023-01-29T08:19:20.565Z,101894.03
2023-01-29T08:21:47.101Z,101894.03
2023-01-29T08:24:13.848Z,101908.41
2023-01-29T08:26:40.383Z,101900.38
2023-01-29T08:29:06.997Z,101883.31
2023-01-29T08:31:33.671Z,101882.84
2023-01-29T08:34:00.155Z,101883.69
2023-01-29T08:36:26.562Z,101875.81
2023-01-29T08:38:53.644Z,101879.16
2023-01-29T08:41:20.718Z,101874.63
2023-01-29T08:43:47.229Z,101866.13
2023-01-29T08:46:13.673Z,101864.94
2023-01-29T08:48:40.131Z,101875.91
2023-01-29T08:51:06.717Z,101878.41
2023-01-29T08:53:33.569Z,101883.59
2023-01-29T08:56:00.197Z,101878.59
2023-01-29T08:58:27.880Z,101873.91
2023-01-29T09:00:54.267Z,101873.50
2023-01-29T09:03:21.111Z,101873.50
2023-01-29T09:05:47.465Z,101882.03
2023-01-29T09:08:14.007Z,101878.16
2023-01-29T09:10:40.543Z,101873.25
2023-01-29T09:13:07.280Z,101882.56
2023-01-29T09:15:33.734Z,101874.81
2023-01-29T09:18:00.159Z,101876.59
2023-01-29T09:20:27.382Z,101881.81
2023-01-29T09:22:53.911Z,101872.38
2023-01-29T09:25:20.628Z,101863.13
2023-01-29T09:27:47.220Z,101871.91
2023-01-29T09:30:14.128Z,101880.22
2023-01-29T09:32:56.016Z,101870.59
2023-01-29T09:35:22.633Z,101870.69
2023-01-29T09:37:49.389Z,101871.78
2023-01-29T09:40:16.249Z,101861.13
2023-01-29T09:42:42.806Z,101864.09
2023-01-29T09:45:09.475Z,101857.97
2023-01-29T09:47:35.981Z,101868.31
2023-01-29T09:50:02.840Z,101871.06
2023-01-29T09:52:29.523Z,101868.38
2023-01-29T09:54:55.990Z,101869.31
2023-01-29T09:57:22.445Z,101859.84
2023-01-29T09:59:49.650Z,101852.69
2023-01-29T10:02:16.292Z,101844.06
2023-01-29T10:04:43.009Z,101843.28
2023-01-29T10:07:09.506Z,101833.63
2023-01-29T10:09:36.223Z,101829.91
2023-01-29T10:12:02.958Z,101823.59
2023-01-29T10:14:29.579Z,101817.19
2023-01-29T10:16:56.078Z,101817.63
2023-01-29T10:19:22.573Z,101802.78
2023-01-29T10:21:49.014Z,101789.19
2023-01-29T10:24:16.120Z,101782.19
2023-01-29T10:26:43.132Z,101795.03
2023-01-29T10:29:09.855Z,101800.84
2023-01-29T10:31:36.350Z,101799.00
2023-01-29T10:34:03.234Z,101796.78
2023-01-29T10:36:29.818Z,101784.81
2023-01-29T10:38:56.270Z,101776.16
2023-01-29T10:41:22.732Z,101769.56
2023-01-29T10:43:49.432Z,101767.16
2023-01-29T10:46:16.227Z,101755.97
2023-01-29T10:48:42.758Z,101760.97
2023-01-29T10:51:10.234Z,101773.63
2023-01-29T10:53:37.639Z,101778.56
2023-01-29T10:56:14.039Z,101785.84
2023-01-29T10:58:45.506Z,101800.53
2023-01-29T11:01:13.772Z,101791.88
2023-01-29T11:03:40.317Z,101784.22
2023-01-29T11:06:06.734Z,101775.78
2023-01-29T11:08:33.113Z,101775.16
2023-01-29T11:10:59.946Z,101778.47
2023-01-29T11:13:27.335Z,101774.34
2023-01-29T11:15:53.754Z,101764.66
2023-01-29T11:18:20.121Z,101749.97
2023-01-29T11:20:46.655Z,101752.69
2023-01-29T11:23:13.046Z,101743.81
2023-01-29T11:25:39.600Z,101733.28
2023-01-29T11:28:06.121Z,101737.22
2023-01-29T11:30:32.984Z,101732.63
2023-01-29T11:32:59.397Z,101726.03
2023-01-29T11:35:25.981Z,101729.75
2023-01-29T11:37:53.175Z,101731.00
2023-01-29T11:40:19.967Z,101737.63
2023-01-29T11:42:46.965Z,101734.75
2023-01-29T11:45:13.798Z,101729.97
2023-01-29T11:47:40.294Z,101728.94
2023-01-29T11:50:06.792Z,101721.88
2023-01-29T11:52:33.536Z,101715.25
2023-01-29T11:54:59.861Z,101712.34
2023-01-29T11:57:26.274Z,101715.25
2023-01-29T11:59:52.680Z,101718.38
2023-01-29T12:02:19.135Z,101708.22
2023-01-29T12:04:46.829Z,101703.69
2023-01-29T12:07:13.185Z,101699.31
2023-01-29T12:09:39.585Z,101697.47
2023-01-29T12:12:06.151Z,101699.94
2023-01-29T12:14:33.175Z,101694.38
2023-01-29T12:16:59.564Z,101695.63
2023-01-29T12:19:25.990Z,101685.47
2023-01-29T12:21:52.901Z,101692.94
2023-01-29T12:24:19.332Z,101690.44
2023-01-29T12:26:45.746Z,101689.22
2023-01-29T12:29:12.834Z,101678.03
2023-01-29T12:31:39.128Z,101667.69
2023-01-29T12:34:05.573Z,101657.34
2023-01-29T12:36:32.317Z,101660.25
2023-01-29T12:38:58.912Z,101652.78
2023-01-29T12:41:25.735Z,101646.38
2023-01-29T12:43:52.377Z,101644.94
2023-01-29T12:46:19.360Z,101627.31
2023-01-29T12:48:46.867Z,101627.75
2023-01-29T12:51:13.462Z,101622.09
2023-01-29T12:53:40.128Z,101626.66
2023-01-29T12:56:06.973Z,101621.06
2023-01-29T12:58:34.073Z,101618.34
2023-01-29T13:01:00.756Z,101613.97
2023-01-29T13:03:27.960Z,101609.78
2023-01-29T13:05:54.905Z,101604.97
2023-01-29T13:08:21.430Z,101607.00
2023-01-29T13:10:47.873Z,101607.00
2023-01-29T13:13:14.347Z,101597.59
2023-01-29T13:15:41.131Z,101600.03
2023-01-29T13:18:08.083Z,101590.88
2023-01-29T13:20:34.634Z,101589.38
2023-01-29T13:23:01.380Z,101595.56
2023-01-29T13:25:27.850Z,101589.28
2023-01-29T13:27:54.964Z,101597.13
2023-01-29T13:30:21.618Z,101602.66
2023-01-29T13:32:48.389Z,101601.56
2023-01-29T13:35:15.004Z,101598.81
2023-01-29T13:37:41.914Z,101609.31
2023-01-29T13:40:08.628Z,101614.66
2023-01-29T13:42:35.374Z,101620.03
2023-01-29T13:45:01.905Z,101627.25
2023-01-29T13:47:28.838Z,101624.28
2023-01-29T13:49:55.374Z,101612.81
2023-01-29T13:52:22.173Z,101607.56
2023-01-29T13:54:48.938Z,101606.28
2023-01-29T13:57:15.559Z,101609.59
2023-01-29T13:59:42.119Z,101621.22
2023-01-29T14:02:09.261Z,101621.59
2023-01-29T14:04:35.671Z,101632.78
2023-01-29T14:07:02.245Z,101618.06
2023-01-29T14:09:29.073Z,101620.53
2023-01-29T14:11:56.087Z,101620.91
2023-01-29T14:14:22.623Z,101619.25
2023-01-29T14:16:49.738Z,101613.88
2023-01-29T14:19:16.384Z,101609.75
2023-01-29T14:21:42.892Z,101613.28
2023-01-29T14:24:09.957Z,101608.47
2023-01-29T14:26:36.482Z,101610.09
2023-01-29T14:29:02.911Z,101615.91
2023-01-29T14:31:29.499Z,101604.06
2023-01-29T14:33:56.311Z,101604.19
2023-01-29T14:36:22.717Z,101600.69
2023-01-29T14:38:51.899Z,101596.09
2023-01-29T14:41:19.974Z,101595.28
2023-01-29T14:43:46.432Z,101592.13
2023-01-29T14:46:12.965Z,101592.13
2023-01-29T14:48:39.524Z,101590.84
2023-01-29T14:51:07.061Z,101587.91
2023-01-29T14:53:34.570Z,101588.75
2023-01-29T14:56:01.024Z,101581.72
2023-01-29T14:58:27.559Z,101580.56
2023-01-29T15:00:54.396Z,101576.16
2023-01-29T15:03:21.779Z,101567.00
2023-01-29T15:05:48.156Z,101571.16
2023-01-29T15:08:14.733Z,101569.03
2023-01-29T15:10:41.489Z,101566.91
2023-01-29T15:13:07.963Z,101566.47
2023-01-29T15:15:34.503Z,101556.06
2023-01-29T15:18:01.419Z,101554.63
2023-01-29T15:20:28.381Z,101554.03
2023-01-29T15:22:55.241Z,101545.50
2023-01-29T15:25:21.832Z,101545.03
2023-01-29T15:27:48.886Z,101546.22
2023-01-29T15:30:15.737Z,101542.72
2023-01-29T15:32:42.658Z,101538.94
2023-01-29T15:35:09.014Z,101541.38
2023-01-29T15:37:35.614Z,101532.72
2023-01-29T15:40:02.773Z,101540.31
2023-01-29T15:42:29.579Z,101526.66
2023-01-29T15:44:56.736Z,101519.84
2023-01-29T15:47:23.222Z,101526.72
2023-01-29T15:49:49.727Z,101523.44
2023-01-29T15:52:16.276Z,101523.56
2023-01-29T15:54:42.624Z,101511.84
2023-01-29T15:57:09.563Z,101502.91
2023-01-29T15:59:36.083Z,101509.16
2023-01-29T16:02:02.448Z,101516.41
2023-01-29T16:04:29.029Z,101505.84
2023-01-29T16:06:55.814Z,101507.72
2023-01-29T16:09:22.411Z,101506.09
2023-01-29T16:11:48.843Z,101511.69
2023-01-29T16:14:15.429Z,101510.84
2023-01-29T16:16:41.888Z,101506.72
2023-01-29T16:19:08.995Z,101503.66
2023-01-29T16:21:35.376Z,101501.56
2023-01-29T16:24:01.893Z,101503.72
2023-01-29T16:26:28.716Z,101504.16
2023-01-29T16:28:55.680Z,101506.94
2023-01-29T16:31:22.206Z,101501.53
2023-01-29T16:33:48.961Z,101504.28
2023-01-29T16:36:15.422Z,101495.22
2023-01-29T16:38:41.888Z,101505.16
2023-01-29T16:41:08.410Z,101504.13
2023-01-29T16:43:41.955Z,101493.78
2023-01-29T16:46:09.181Z,101494.44
2023-01-29T16:48:35.873Z,101495.69
2023-01-29T16:51:02.384Z,101495.97
2023-01-29T16:53:28.682Z,101492.69
2023-01-29T16:55:55.523Z,101483.16
2023-01-29T16:58:21.946Z,101485.06
2023-01-29T17:00:48.440Z,101483.38
2023-01-29T17:03:14.960Z,101485.53
2023-01-29T17:05:41.270Z,101476.84
2023-01-29T17:08:08.085Z,101472.50
2023-01-29T17:10:34.823Z,101479.34
2023-01-29T17:13:01.301Z,101477.28
2023-01-29T17:15:28.267Z,101479.38
2023-01-29T17:17:55.097Z,101469.03
2023-01-29T17:20:21.468Z,101464.97
2023-01-29T17:22:48.260Z,101465.97
2023-01-29T17:25:15.171Z,101469.50
2023-01-29T17:27:41.913Z,101465.78
2023-01-29T17:30:08.283Z,101460.03
2023-01-29T17:32:43.525Z,101464.41
2023-01-29T17:35:11.684Z,101455.53
2023-01-29T17:37:38.336Z,101454.53
2023-01-29T17:40:05.475Z,101455.00
2023-01-29T17:42:31.908Z,101450.88
2023-01-29T17:44:58.375Z,101442.19
2023-01-29T17:47:25.518Z,101447.41
2023-01-29T17:49:51.982Z,101442.25
2023-01-29T17:52:18.631Z,101432.94
2023-01-29T17:54:45.116Z,101432.53
2023-01-29T17:57:11.835Z,101424.25
2023-01-29T17:59:39.211Z,101411.88
2023-01-29T18:02:05.788Z,101412.13
2023-01-29T18:04:32.360Z,101409.22
2023-01-29T18:06:58.819Z,101394.34
2023-01-29T18:09:25.584Z,101398.06
2023-01-29T18:11:52.140Z,101393.94
2023-01-29T18:14:18.748Z,101387.31
2023-01-29T18:16:45.384Z,101373.66
2023-01-29T18:19:12.076Z,101372.22
2023-01-29T18:21:38.638Z,101369.19
2023-01-29T18:24:05.786Z,101366.56
2023-01-29T18:26:32.685Z,101359.25
2023-01-29T18:28:59.612Z,101348.97
2023-01-29T18:31:26.140Z,101340.91
2023-01-29T18:33:52.652Z,101335.13
2023-01-29T18:36:19.918Z,101332.44
2023-01-29T18:38:46.273Z,101334.28
2023-01-29T18:41:13.005Z,101326.03
2023-01-29T18:43:39.492Z,101321.06
2023-01-29T18:46:06.185Z,101321.91
2023-01-29T18:48:32.760Z,101321.28
2023-01-29T18:50:59.885Z,101315.75
2023-01-29T18:53:27.270Z,101316.13
2023-01-29T18:55:53.631Z,101316.97
2023-01-29T18:58:28.052Z,101323.41
2023-01-29T19:01:01.465Z,101311.22
2023-01-29T19:03:28.085Z,101311.44
2023-01-29T19:05:54.785Z,101312.03
2023-01-29T19:08:21.479Z,101311.88
2023-01-29T19:10:48.223Z,101310.03
2023-01-29T19:13:14.649Z,101303.44
2023-01-29T19:15:41.603Z,101303.84
2023-01-29T19:18:08.036Z,101310.03
2023-01-29T19:20:34.457Z,101300.13
2023-01-29T19:23:00.825Z,101308.16
2023-01-29T19:25:27.762Z,101297.44
2023-01-29T19:27:54.217Z,101296.38
2023-01-29T19:30:20.723Z,101303.03
2023-01-29T19:32:47.801Z,101293.97
2023-01-29T19:35:14.114Z,101290.88
2023-01-29T19:37:40.730Z,101274.94
2023-01-29T19:40:07.264Z,101286.13
2023-01-29T19:42:33.869Z,101289.03
2023-01-29T19:45:00.504Z,101278.88
2023-01-29T19:47:27.418Z,101270.66
2023-01-29T19:49:54.095Z,101279.09
2023-01-29T19:52:20.510Z,101269.22
2023-01-29T19:54:47.459Z,101268.34
2023-01-29T19:57:14.051Z,101264.22
2023-01-29T19:59:40.500Z,101264.25
2023-01-29T20:02:07.469Z,101266.94
2023-01-29T20:04:34.272Z,101256.66
2023-01-29T20:07:00.882Z,101253.72
2023-01-29T20:09:27.289Z,101258.06
2023-01-29T20:11:53.913Z,101245.44
2023-01-29T20:14:20.478Z,101241.31
2023-01-29T20:16:46.969Z,101237.84
2023-01-29T20:19:15.134Z,101240.53
2023-01-29T20:21:41.605Z,101233.91
2023-01-29T20:24:08.950Z,101231.00
2023-01-29T20:26:35.481Z,101225.84
2023-01-29T20:29:01.857Z,101223.38
2023-01-29T20:31:28.728Z,101213.88
2023-01-29T20:33:55.821Z,101207.28
2023-01-29T20:36:22.941Z,101201.47
2023-01-29T20:38:49.326Z,101185.34
2023-01-29T20:41:15.777Z,101193.00
2023-01-29T20:43:42.437Z,101184.56
2023-01-29T20:46:08.928Z,101183.94
2023-01-29T20:48:35.562Z,101183.53
2023-01-29T20:51:02.143Z,101176.72
2023-01-29T20:53:28.545Z,101165.19
2023-01-29T20:55:55.090Z,101173.44
2023-01-29T20:58:21.543Z,101153.22
2023-01-29T21:00:48.264Z,101161.06
2023-01-29T21:03:14.982Z,101159.84
2023-01-29T21:05:41.420Z,101155.31
2023-01-29T21:08:07.860Z,101148.28
2023-01-29T21:10:34.327Z,101146.00
2023-01-29T21:13:01.572Z,101139.41
2023-01-29T21:15:28.318Z,101141.47
2023-01-29T21:17:55.293Z,101140.00
2023-01-29T21:20:21.907Z,101127.66
2023-01-29T21:22:48.327Z,101129.72
2023-01-29T21:25:14.778Z,101118.34
2023-01-29T21:27:41.163Z,101105.63
2023-01-29T21:30:07.720Z,101101.47
2023-01-29T21:32:34.198Z,101100.41
2023-01-29T21:35:01.002Z,101098.16
2023-01-29T21:37:28.027Z,101096.72
2023-01-29T21:39:54.748Z,101089.50
2023-01-29T21:42:21.851Z,101076.13
2023-01-29T21:44:48.317Z,101073.81
2023-01-29T21:47:15.118Z,101061.84
2023-01-29T21:49:42.065Z,101057.94
2023-01-29T21:52:08.454Z,101047.03
2023-01-29T21:54:34.916Z,101051.16
2023-01-29T21:57:01.379Z,101047.84
2023-01-29T21:59:27.930Z,101040.63
2023-01-29T22:01:54.410Z,101027.63
2023-01-29T22:04:21.096Z,101024.53
2023-01-29T22:06:48.132Z,101018.56
2023-01-29T22:09:15.039Z,101015.25
2023-01-29T22:11:41.702Z,101013.59
2023-01-29T22:14:08.083Z,101009.69
2023-01-29T22:16:34.577Z,101007.19
2023-01-29T22:19:01.471Z,101003.78
2023-01-29T22:21:28.165Z,101006.00
2023-01-29T22:23:54.877Z,101004.16
2023-01-29T22:26:21.367Z,100991.53
2023-01-29T22:28:48.049Z,100988.69
2023-01-29T22:31:15.169Z,100985.78
2023-01-29T22:33:41.622Z,100981.69
2023-01-29T22:36:08.291Z,100980.06
2023-01-29T22:38:35.439Z,100974.84
2023-01-29T22:41:01.791Z,100978.19
2023-01-29T22:43:28.475Z,100965.28
2023-01-29T22:45:54.908Z,100963.25
2023-01-29T22:48:21.461Z,100963.19
2023-01-29T22:50:48.656Z,100960.91
2023-01-29T22:53:15.033Z,100941.75
2023-01-29T22:55:41.465Z,100946.69
2023-01-29T22:58:08.144Z,100940.94
2023-01-29T23:00:34.496Z,100936.38
2023-01-29T23:03:01.208Z,100925.50
2023-01-29T23:05:27.826Z,100933.47
2023-01-29T23:07:54.948Z,100917.38
2023-01-29T23:10:21.297Z,100915.16
2023-01-29T23:12:47.686Z,100906.28
2023-01-29T23:15:14.315Z,100887.09
2023-01-29T23:17:40.674Z,100887.72
2023-01-29T23:20:07.021Z,100882.56
2023-01-29T23:22:33.551Z,100866.75
2023-01-29T23:25:00.048Z,100869.34
2023-01-29T23:27:26.640Z,100872.97
2023-01-29T23:29:53.264Z,100865.72
2023-01-29T23:32:19.725Z,100859.97
2023-01-29T23:34:46.342Z,100853.59
2023-01-29T23:37:12.930Z,100845.94
2023-01-29T23:39:39.418Z,100847.38
2023-01-29T23:42:05.788Z,100833.53
2023-01-29T23:44:32.344Z,100820.97
2023-01-29T23:46:59.103Z,100817.28
2023-01-29T23:49:25.537Z,100812.53
2023-01-29T23:51:51.922Z,100807.88
2023-01-29T23:54:18.437Z,100806.19
2023-01-29T23:56:44.860Z,100805.75
2023-01-29T23:59:11.403Z,100797.13
